sensor_id;sensor_type;location;lat;lon;timestamp;pressure;altitude;pressure_sealevel;temperature;humidity
75998;BME280;64685;48.762;44.822;2023-03-11T00:03:47;100770.94;;;8.31;75.49
75998;BME280;64685;48.762;44.822;2023-03-11T00:08:50;100770.94;;;8.31;75.92
75998;BME280;64685;48.762;44.822;2023-03-11T00:13:53;100781.84;;;8.27;75.96
75998;BME280;64685;48.762;44.822;2023-03-11T00:18:55;100793.91;;;8.23;76.31
75998;BME280;64685;48.762;44.822;2023-03-11T00:23:59;100793.06;;;8.22;76.19
75998;BME280;64685;48.762;44.822;2023-03-11T00:29:03;100802.59;;;8.16;76.02
75998;BME280;64685;48.762;44.822;2023-03-11T00:34:07;100796.06;;;8.26;76.38
75998;BME280;64685;48.762;44.822;2023-03-11T00:39:10;100794.13;;;8.26;76.34
75998;BME280;64685;48.762;44.822;2023-03-11T00:44:12;100794.03;;;8.31;76.48
75998;BME280;64685;48.762;44.822;2023-03-11T00:49:15;100790.63;;;8.34;76.63
75998;BME280;64685;48.762;44.822;2023-03-11T00:54:17;100801.97;;;8.38;76.85
75998;BME280;64685;48.762;44.822;2023-03-11T00:59:20;100808.66;;;8.37;77.01
75998;BME280;64685;48.762;44.822;2023-03-11T01:04:22;100821.75;;;8.36;77.01
75998;BME280;64685;48.762;44.822;2023-03-11T01:09:25;100833.91;;;8.40;76.77
75998;BME280;64685;48.762;44.822;2023-03-11T01:14:27;100821.69;;;8.41;77.37
75998;BME280;64685;48.762;44.822;2023-03-11T01:19:30;100833.09;;;8.40;77.55
75998;BME280;64685;48.762;44.822;2023-03-11T01:24:32;100828.44;;;8.35;77.31
75998;BME280;64685;48.762;44.822;2023-03-11T01:29:35;100832.16;;;8.31;77.49
75998;BME280;64685;48.762;44.822;2023-03-11T01:34:37;100847.78;;;8.27;77.55
75998;BME280;64685;48.762;44.822;2023-03-11T01:39:40;100853.47;;;8.22;77.71
75998;BME280;64685;48.762;44.822;2023-03-11T01:44:42;100869.66;;;8.33;77.48
75998;BME280;64685;48.762;44.822;2023-03-11T01:49:47;100864.53;;;8.40;77.91
75998;BME280;64685;48.762;44.822;2023-03-11T01:54:50;100866.66;;;8.30;77.76
75998;BME280;64685;48.762;44.822;2023-03-11T01:59:55;100881.84;;;8.37;77.43
75998;BME280;64685;48.762;44.822;2023-03-11T02:05:01;100897.09;;;8.40;78.12
75998;BME280;64685;48.762;44.822;2023-03-11T02:10:04;100896.69;;;8.33;78.02
75998;BME280;64685;48.762;44.822;2023-03-11T02:15:09;100912.06;;;8.44;77.73
75998;BME280;64685;48.762;44.822;2023-03-11T02:30:33;100894.28;;;8.72;77.79
75998;BME280;64685;48.762;44.822;2023-03-11T02:35:37;100893.91;;;8.78;77.33
75998;BME280;64685;48.762;44.822;2023-03-11T02:41:05;100889.53;;;8.59;77.09
75998;BME280;64685;48.762;44.822;2023-03-11T02:46:09;100894.91;;;8.18;77.48
75998;BME280;64685;48.762;44.822;2023-03-11T02:51:13;100898.94;;;7.94;77.44
75998;BME280;64685;48.762;44.822;2023-03-11T02:56:16;100893.91;;;7.77;77.45
75998;BME280;64685;48.762;44.822;2023-03-11T03:01:19;100897.59;;;7.73;76.96
75998;BME280;64685;48.762;44.822;2023-03-11T03:06:23;100893.22;;;7.67;77.71
75998;BME280;64685;48.762;44.822;2023-03-11T03:11:26;100890.66;;;7.70;77.72
75998;BME280;64685;48.762;44.822;2023-03-11T03:16:29;100891.47;;;7.89;77.30
75998;BME280;64685;48.762;44.822;2023-03-11T03:21:32;100883.16;;;7.89;77.72
75998;BME280;64685;48.762;44.822;2023-03-11T03:26:35;100879.22;;;7.90;77.25
75998;BME280;64685;48.762;44.822;2023-03-11T03:31:40;100878.78;;;7.46;77.82
75998;BME280;64685;48.762;44.822;2023-03-11T03:36:43;100879.56;;;7.28;77.75
75998;BME280;64685;48.762;44.822;2023-03-11T03:41:46;100892.53;;;7.14;77.29
75998;BME280;64685;48.762;44.822;2023-03-11T03:46:49;100910.47;;;6.98;77.49
75998;BME280;64685;48.762;44.822;2023-03-11T03:51:52;100920.84;;;6.93;77.70
75998;BME280;64685;48.762;44.822;2023-03-11T03:57:01;100926.09;;;6.66;77.35
75998;BME280;64685;48.762;44.822;2023-03-11T04:02:06;100939.69;;;6.67;77.62
75998;BME280;64685;48.762;44.822;2023-03-11T04:07:09;100947.66;;;6.74;77.57
75998;BME280;64685;48.762;44.822;2023-03-11T04:12:14;100948.19;;;6.47;77.44
75998;BME280;64685;48.762;44.822;2023-03-11T04:17:17;100954.81;;;6.51;77.50
75998;BME280;64685;48.762;44.822;2023-03-11T04:22:20;100957.09;;;6.44;77.35
75998;BME280;64685;48.762;44.822;2023-03-11T04:27:23;100958.19;;;6.43;77.49
75998;BME280;64685;48.762;44.822;2023-03-11T04:32:25;100953.03;;;6.32;76.89
75998;BME280;64685;48.762;44.822;2023-03-11T04:37:28;100946.34;;;6.38;77.02
75998;BME280;64685;48.762;44.822;2023-03-11T04:42:31;100959.41;;;6.32;77.03
75998;BME280;64685;48.762;44.822;2023-03-11T04:47:34;100957.78;;;6.60;76.87
75998;BME280;64685;48.762;44.822;2023-03-11T04:52:39;100984.31;;;6.99;75.58
75998;BME280;64685;48.762;44.822;2023-03-11T04:57:42;100978.91;;;7.13;75.79
75998;BME280;64685;48.762;44.822;2023-03-11T05:02:47;100985.22;;;6.95;75.08
75998;BME280;64685;48.762;44.822;2023-03-11T05:07:50;100995.00;;;6.87;75.94
75998;BME280;64685;48.762;44.822;2023-03-11T05:12:52;100995.78;;;6.93;75.80
75998;BME280;64685;48.762;44.822;2023-03-11T05:17:58;100997.72;;;6.92;75.69
75998;BME280;64685;48.762;44.822;2023-03-11T05:23:03;100997.69;;;6.97;75.94
75998;BME280;64685;48.762;44.822;2023-03-11T05:28:08;101010.25;;;7.18;76.59
75998;BME280;64685;48.762;44.822;2023-03-11T05:33:16;101018.25;;;7.20;76.55
75998;BME280;64685;48.762;44.822;2023-03-11T05:38:19;101011.91;;;7.19;76.34
75998;BME280;64685;48.762;44.822;2023-03-11T05:43:22;101016.00;;;7.27;76.57
75998;BME280;64685;48.762;44.822;2023-03-11T05:48:28;101017.59;;;7.33;76.27
75998;BME280;64685;48.762;44.822;2023-03-11T05:53:31;101009.84;;;7.53;76.71
75998;BME280;64685;48.762;44.822;2023-03-11T05:58:34;101015.28;;;7.40;76.22
75998;BME280;64685;48.762;44.822;2023-03-11T06:03:38;101027.97;;;7.22;76.30
75998;BME280;64685;48.762;44.822;2023-03-11T06:08:41;101020.13;;;7.29;76.52
75998;BME280;64685;48.762;44.822;2023-03-11T06:13:52;101020.28;;;7.14;76.79
75998;BME280;64685;48.762;44.822;2023-03-11T06:18:59;101020.81;;;7.16;76.84
75998;BME280;64685;48.762;44.822;2023-03-11T06:24:06;101016.00;;;7.27;77.18
75998;BME280;64685;48.762;44.822;2023-03-11T06:29:12;101005.53;;;7.42;77.19
75998;BME280;64685;48.762;44.822;2023-03-11T06:34:16;101026.06;;;7.46;77.59
75998;BME280;64685;48.762;44.822;2023-03-11T06:39:19;101023.09;;;7.61;77.25
75998;BME280;64685;48.762;44.822;2023-03-11T06:44:24;101033.75;;;7.78;77.14
75998;BME280;64685;48.762;44.822;2023-03-11T06:49:26;101028.97;;;7.78;76.96
75998;BME280;64685;48.762;44.822;2023-03-11T06:54:29;101032.38;;;7.99;76.53
75998;BME280;64685;48.762;44.822;2023-03-11T06:59:32;101027.06;;;8.21;76.72
75998;BME280;64685;48.762;44.822;2023-03-11T07:04:37;101017.19;;;8.65;76.08
75998;BME280;64685;48.762;44.822;2023-03-11T07:09:39;101028.47;;;8.74;75.64
75998;BME280;64685;48.762;44.822;2023-03-11T07:14:45;101024.69;;;8.83;75.68
75998;BME280;64685;48.762;44.822;2023-03-11T07:19:47;101021.03;;;9.01;75.37
75998;BME280;64685;48.762;44.822;2023-03-11T07:24:50;101012.03;;;9.23;75.13
75998;BME280;64685;48.762;44.822;2023-03-11T07:29:53;101007.69;;;9.57;74.85
75998;BME280;64685;48.762;44.822;2023-03-11T07:34:56;101014.81;;;9.90;74.14
75998;BME280;64685;48.762;44.822;2023-03-11T07:39:58;101005.84;;;10.42;73.54
75998;BME280;64685;48.762;44.822;2023-03-11T07:45:01;101009.53;;;10.87;72.41
75998;BME280;64685;48.762;44.822;2023-03-11T07:50:04;101003.84;;;11.22;71.13
75998;BME280;64685;48.762;44.822;2023-03-11T07:55:07;100998.44;;;11.26;70.58
75998;BME280;64685;48.762;44.822;2023-03-11T08:00:10;100996.13;;;11.58;70.77
75998;BME280;64685;48.762;44.822;2023-03-11T08:05:14;101003.78;;;11.44;69.38
75998;BME280;64685;48.762;44.822;2023-03-11T08:10:16;100992.63;;;11.92;69.59
75998;BME280;64685;48.762;44.822;2023-03-11T08:15:19;100990.88;;;12.21;68.74
75998;BME280;64685;48.762;44.822;2023-03-11T08:20:21;100981.34;;;12.82;67.63
75998;BME280;64685;48.762;44.822;2023-03-11T08:25:24;100985.47;;;12.59;66.76
75998;BME280;64685;48.762;44.822;2023-03-11T08:30:27;100983.50;;;12.68;66.97
75998;BME280;64685;48.762;44.822;2023-03-11T08:35:30;100992.91;;;12.46;66.17
75998;BME280;64685;48.762;44.822;2023-03-11T08:40:33;100999.47;;;12.67;66.02
75998;BME280;64685;48.762;44.822;2023-03-11T08:45:35;100995.88;;;12.75;66.00
75998;BME280;64685;48.762;44.822;2023-03-11T08:50:42;100995.09;;;13.38;65.05
75998;BME280;64685;48.762;44.822;2023-03-11T08:55:55;100990.06;;;13.97;63.84
75998;BME280;64685;48.762;44.822;2023-03-11T09:00:58;100989.28;;;14.99;62.82
75998;BME280;64685;48.762;44.822;2023-03-11T09:06:02;100996.88;;;16.48;60.47
75998;BME280;64685;48.762;44.822;2023-03-11T09:11:07;100987.38;;;16.40;59.10
75998;BME280;64685;48.762;44.822;2023-03-11T09:16:18;100983.41;;;16.81;58.44
75998;BME280;64685;48.762;44.822;2023-03-11T09:21:21;100998.19;;;16.26;57.25
75998;BME280;64685;48.762;44.822;2023-03-11T09:26:24;100984.22;;;16.18;56.96
75998;BME280;64685;48.762;44.822;2023-03-11T09:31:26;100983.97;;;15.99;57.34
75998;BME280;64685;48.762;44.822;2023-03-11T09:36:29;100976.00;;;15.65;57.20
75998;BME280;64685;48.762;44.822;2023-03-11T09:41:53;100966.56;;;16.45;56.09
75998;BME280;64685;48.762;44.822;2023-03-11T09:47:18;100957.66;;;17.53;54.86
75998;BME280;64685;48.762;44.822;2023-03-11T09:52:43;100959.47;;;17.18;54.18
75998;BME280;64685;48.762;44.822;2023-03-11T09:57:47;100953.50;;;16.52;54.35
75998;BME280;64685;48.762;44.822;2023-03-11T10:02:49;100952.47;;;16.33;54.56
75998;BME280;64685;48.762;44.822;2023-03-11T10:08:11;100952.59;;;16.48;54.03
75998;BME280;64685;48.762;44.822;2023-03-11T10:13:39;100951.09;;;16.15;54.39
75998;BME280;64685;48.762;44.822;2023-03-11T10:18:58;100948.50;;;16.22;54.28
75998;BME280;64685;48.762;44.822;2023-03-11T10:24:29;100947.34;;;16.11;54.51
75998;BME280;64685;48.762;44.822;2023-03-11T10:30:34;100949.25;;;16.07;54.99
75998;BME280;64685;48.762;44.822;2023-03-11T10:35:21;100948.78;;;15.81;55.65
75998;BME280;64685;48.762;44.822;2023-03-11T10:40:35;100941.28;;;15.16;56.98
75998;BME280;64685;48.762;44.822;2023-03-11T10:45:41;100951.00;;;14.74;57.90
75998;BME280;64685;48.762;44.822;2023-03-11T10:51:09;100942.50;;;14.42;59.03
75998;BME280;64685;48.762;44.822;2023-03-11T10:56:25;100943.53;;;14.37;59.24
75998;BME280;64685;48.762;44.822;2023-03-11T11:01:29;100935.31;;;14.53;59.70
75998;BME280;64685;48.762;44.822;2023-03-11T11:06:36;100911.84;;;16.34;57.32
75998;BME280;64685;48.762;44.822;2023-03-11T11:11:39;100913.00;;;17.00;56.32
75998;BME280;64685;48.762;44.822;2023-03-11T11:16:41;100921.97;;;17.33;55.48
75998;BME280;64685;48.762;44.822;2023-03-11T11:21:48;100917.09;;;17.02;55.09
75998;BME280;64685;48.762;44.822;2023-03-11T11:27:14;100908.88;;;17.71;54.00
75998;BME280;64685;48.762;44.822;2023-03-11T11:32:24;100916.25;;;17.76;52.95
75998;BME280;64685;48.762;44.822;2023-03-11T11:37:30;100910.25;;;16.88;54.30
75998;BME280;64685;48.762;44.822;2023-03-11T11:42:33;100907.50;;;16.24;55.43
75998;BME280;64685;48.762;44.822;2023-03-11T11:47:40;100898.53;;;15.83;56.51
75998;BME280;64685;48.762;44.822;2023-03-11T11:52:54;100895.16;;;15.77;57.03
75998;BME280;64685;48.762;44.822;2023-03-11T11:57:58;100895.75;;;15.71;56.71
75998;BME280;64685;48.762;44.822;2023-03-11T12:08:32;100914.34;;;15.27;57.78
75998;BME280;64685;48.762;44.822;2023-03-11T12:18:51;100914.22;;;15.24;58.07
75998;BME280;64685;48.762;44.822;2023-03-11T12:34:23;100906.19;;;14.90;59.53
75998;BME280;64685;48.762;44.822;2023-03-11T12:39:33;100898.41;;;14.87;59.16
75998;BME280;64685;48.762;44.822;2023-03-11T12:44:40;100905.88;;;15.15;58.97
75998;BME280;64685;48.762;44.822;2023-03-11T12:49:50;100909.44;;;15.24;58.80
75998;BME280;64685;48.762;44.822;2023-03-11T13:10:57;100903.84;;;15.04;59.73
75998;BME280;64685;48.762;44.822;2023-03-11T13:26:35;100905.13;;;14.94;60.52
75998;BME280;64685;48.762;44.822;2023-03-11T13:47:22;100908.41;;;14.31;62.29
75998;BME280;64685;48.762;44.822;2023-03-11T13:52:31;100903.88;;;14.39;62.42
75998;BME280;64685;48.762;44.822;2023-03-11T13:57:36;100901.25;;;14.34;62.93
75998;BME280;64685;48.762;44.822;2023-03-11T14:02:44;100900.50;;;14.25;63.61
75998;BME280;64685;48.762;44.822;2023-03-11T14:07:47;100907.44;;;14.27;63.63
75998;BME280;64685;48.762;44.822;2023-03-11T14:12:50;100904.06;;;14.34;63.43
75998;BME280;64685;48.762;44.822;2023-03-11T14:17:53;100907.78;;;14.26;63.45
75998;BME280;64685;48.762;44.822;2023-03-11T14:23:17;100906.31;;;14.20;63.80
75998;BME280;64685;48.762;44.822;2023-03-11T14:28:20;100909.66;;;14.13;63.89
75998;BME280;64685;48.762;44.822;2023-03-11T14:33:24;100899.31;;;14.05;63.93
75998;BME280;64685;48.762;44.822;2023-03-11T14:38:29;100899.03;;;13.98;64.33
75998;BME280;64685;48.762;44.822;2023-03-11T14:43:36;100900.59;;;13.87;64.89
75998;BME280;64685;48.762;44.822;2023-03-11T14:48:40;100913.25;;;13.73;65.38
75998;BME280;64685;48.762;44.822;2023-03-11T14:54:01;100907.38;;;13.57;66.04
75998;BME280;64685;48.762;44.822;2023-03-11T14:59:27;100906.59;;;13.48;66.40
75998;BME280;64685;48.762;44.822;2023-03-11T15:04:35;100913.41;;;13.39;66.98
75998;BME280;64685;48.762;44.822;2023-03-11T15:09:40;100910.50;;;13.27;67.28
75998;BME280;64685;48.762;44.822;2023-03-11T15:14:50;100914.34;;;13.14;68.05
75998;BME280;64685;48.762;44.822;2023-03-11T15:19:59;100900.19;;;13.02;68.06
75998;BME280;64685;48.762;44.822;2023-03-11T15:25:03;100917.22;;;12.97;68.62
75998;BME280;64685;48.762;44.822;2023-03-11T15:30:34;100926.75;;;12.88;68.98
75998;BME280;64685;48.762;44.822;2023-03-11T15:35:46;100932.38;;;12.79;69.33
75998;BME280;64685;48.762;44.822;2023-03-11T15:40:51;100932.59;;;12.66;69.32
75998;BME280;64685;48.762;44.822;2023-03-11T15:45:56;100935.88;;;12.59;69.86
75998;BME280;64685;48.762;44.822;2023-03-11T15:50:59;100947.09;;;12.51;70.18
75998;BME280;64685;48.762;44.822;2023-03-11T15:56:09;100941.97;;;12.44;70.47
75998;BME280;64685;48.762;44.822;2023-03-11T16:01:13;100947.09;;;12.34;70.78
75998;BME280;64685;48.762;44.822;2023-03-11T16:06:15;100947.88;;;12.26;71.46
75998;BME280;64685;48.762;44.822;2023-03-11T16:11:18;100940.31;;;12.18;71.54
75998;BME280;64685;48.762;44.822;2023-03-11T16:16:20;100942.63;;;12.07;71.56
75998;BME280;64685;48.762;44.822;2023-03-11T16:21:32;100937.03;;;11.99;71.93
75998;BME280;64685;48.762;44.822;2023-03-11T16:26:35;100932.88;;;11.88;71.79
75998;BME280;64685;48.762;44.822;2023-03-11T16:31:38;100932.72;;;11.84;72.40
75998;BME280;64685;48.762;44.822;2023-03-11T16:36:41;100936.75;;;11.70;72.40
75998;BME280;64685;48.762;44.822;2023-03-11T16:41:43;100935.28;;;11.64;73.31
75998;BME280;64685;48.762;44.822;2023-03-11T16:46:46;100927.81;;;11.51;73.42
75998;BME280;64685;48.762;44.822;2023-03-11T16:51:49;100927.38;;;11.27;73.22
75998;BME280;64685;48.762;44.822;2023-03-11T16:56:51;100926.59;;;11.04;73.08
75998;BME280;64685;48.762;44.822;2023-03-11T17:01:53;100933.75;;;10.88;74.44
75998;BME280;64685;48.762;44.822;2023-03-11T17:06:56;100925.13;;;10.76;74.64
75998;BME280;64685;48.762;44.822;2023-03-11T17:11:59;100925.00;;;10.59;75.21
75998;BME280;64685;48.762;44.822;2023-03-11T17:17:01;100919.72;;;10.49;75.08
75998;BME280;64685;48.762;44.822;2023-03-11T17:22:07;100915.31;;;10.35;76.10
75998;BME280;64685;48.762;44.822;2023-03-11T17:27:09;100914.22;;;10.22;75.90
75998;BME280;64685;48.762;44.822;2023-03-11T17:32:12;100916.97;;;10.14;76.43
75998;BME280;64685;48.762;44.822;2023-03-11T17:37:18;100920.25;;;10.02;76.59
75998;BME280;64685;48.762;44.822;2023-03-11T17:42:21;100921.13;;;9.89;77.18
75998;BME280;64685;48.762;44.822;2023-03-11T17:47:24;100922.38;;;9.83;77.09
75998;BME280;64685;48.762;44.822;2023-03-11T17:52:27;100925.69;;;9.72;77.76
75998;BME280;64685;48.762;44.822;2023-03-11T17:57:29;100924.69;;;9.54;77.64
75998;BME280;64685;48.762;44.822;2023-03-11T18:02:43;100912.91;;;9.44;78.02
75998;BME280;64685;48.762;44.822;2023-03-11T18:07:46;100909.13;;;9.40;78.79
75998;BME280;64685;48.762;44.822;2023-03-11T18:12:48;100913.16;;;9.34;78.74
75998;BME280;64685;48.762;44.822;2023-03-11T18:17:51;100918.28;;;9.27;78.68
75998;BME280;64685;48.762;44.822;2023-03-11T18:22:54;100907.34;;;9.17;79.61
75998;BME280;64685;48.762;44.822;2023-03-11T18:27:57;100907.88;;;9.19;79.32
75998;BME280;64685;48.762;44.822;2023-03-11T18:32:59;100906.03;;;9.14;79.12
75998;BME280;64685;48.762;44.822;2023-03-11T18:38:02;100899.09;;;9.12;79.54
75998;BME280;64685;48.762;44.822;2023-03-11T18:43:04;100902.69;;;9.12;79.74
75998;BME280;64685;48.762;44.822;2023-03-11T18:48:07;100902.00;;;9.07;80.08
75998;BME280;64685;48.762;44.822;2023-03-11T18:53:10;100899.00;;;9.03;79.91
75998;BME280;64685;48.762;44.822;2023-03-11T18:58:13;100894.44;;;9.07;80.22
75998;BME280;64685;48.762;44.822;2023-03-11T19:03:16;100883.50;;;9.11;80.04
75998;BME280;64685;48.762;44.822;2023-03-11T19:08:18;100884.13;;;9.21;80.05
75998;BME280;64685;48.762;44.822;2023-03-11T19:13:21;100875.13;;;9.11;79.79
75998;BME280;64685;48.762;44.822;2023-03-11T19:18:23;100868.88;;;9.05;79.97
75998;BME280;64685;48.762;44.822;2023-03-11T19:23:26;100870.09;;;8.99;79.96
75998;BME280;64685;48.762;44.822;2023-03-11T19:28:29;100863.28;;;8.92;79.98
75998;BME280;64685;48.762;44.822;2023-03-11T19:33:32;100864.53;;;8.86;79.94
75998;BME280;64685;48.762;44.822;2023-03-11T19:38:35;100864.81;;;8.84;80.05
75998;BME280;64685;48.762;44.822;2023-03-11T19:43:37;100864.63;;;8.81;79.98
75998;BME280;64685;48.762;44.822;2023-03-11T19:48:40;100860.47;;;8.78;79.83
75998;BME280;64685;48.762;44.822;2023-03-11T19:53:43;100855.97;;;8.82;79.92
75998;BME280;64685;48.762;44.822;2023-03-11T19:58:45;100855.31;;;8.85;80.00
75998;BME280;64685;48.762;44.822;2023-03-11T20:03:50;100852.44;;;8.90;79.61
75998;BME280;64685;48.762;44.822;2023-03-11T20:08:53;100848.75;;;8.95;79.57
75998;BME280;64685;48.762;44.822;2023-03-11T20:13:55;100847.06;;;8.94;79.46
75998;BME280;64685;48.762;44.822;2023-03-11T20:18:58;100847.31;;;8.97;79.11
75998;BME280;64685;48.762;44.822;2023-03-11T20:24:01;100856.38;;;9.03;78.81
75998;BME280;64685;48.762;44.822;2023-03-11T20:29:04;100848.13;;;9.11;78.42
75998;BME280;64685;48.762;44.822;2023-03-11T20:34:06;100844.84;;;9.09;78.62
75998;BME280;64685;48.762;44.822;2023-03-11T20:39:09;100827.59;;;9.07;77.80
75998;BME280;64685;48.762;44.822;2023-03-11T20:44:13;100825.22;;;9.01;77.32
75998;BME280;64685;48.762;44.822;2023-03-11T20:49:15;100818.22;;;8.90;77.38
75998;BME280;64685;48.762;44.822;2023-03-11T20:54:18;100816.56;;;8.75;77.11
75998;BME280;64685;48.762;44.822;2023-03-11T20:59:20;100813.97;;;8.65;76.89
75998;BME280;64685;48.762;44.822;2023-03-11T21:04:22;100800.06;;;8.65;76.84
75998;BME280;64685;48.762;44.822;2023-03-11T21:09:25;100798.91;;;8.66;76.52
75998;BME280;64685;48.762;44.822;2023-03-11T21:14:28;100804.47;;;8.66;76.27
75998;BME280;64685;48.762;44.822;2023-03-11T21:19:31;100804.19;;;8.68;76.00
75998;BME280;64685;48.762;44.822;2023-03-11T21:24:33;100793.44;;;8.75;75.93
75998;BME280;64685;48.762;44.822;2023-03-11T21:29:36;100786.25;;;8.74;75.49
75998;BME280;64685;48.762;44.822;2023-03-11T21:34:38;100781.59;;;8.69;75.41
75998;BME280;64685;48.762;44.822;2023-03-11T21:39:41;100778.81;;;8.69;75.19
75998;BME280;64685;48.762;44.822;2023-03-11T21:44:44;100785.50;;;8.55;74.92
75998;BME280;64685;48.762;44.822;2023-03-11T21:49:46;100776.53;;;8.44;75.19
75998;BME280;64685;48.762;44.822;2023-03-11T21:54:49;100771.47;;;8.33;75.12
75998;BME280;64685;48.762;44.822;2023-03-11T21:59:51;100776.84;;;8.11;74.84
75998;BME280;64685;48.762;44.822;2023-03-11T22:12:37;100759.41;;;8.05;74.99
75998;BME280;64685;48.762;44.822;2023-03-11T22:17:39;100763.66;;;8.16;75.01
75998;BME280;64685;48.762;44.822;2023-03-11T22:22:42;100760.81;;;8.21;74.94
75998;BME280;64685;48.762;44.822;2023-03-11T22:27:45;100764.84;;;8.29;74.72
75998;BME280;64685;48.762;44.822;2023-03-11T22:32:47;100761.44;;;8.32;75.12
75998;BME280;64685;48.762;44.822;2023-03-11T22:37:50;100779.59;;;8.43;75.06
75998;BME280;64685;48.762;44.822;2023-03-11T22:42:53;100784.28;;;8.61;74.99
75998;BME280;64685;48.762;44.822;2023-03-11T22:47:55;100765.59;;;8.61;74.68
75998;BME280;64685;48.762;44.822;2023-03-11T22:52:58;100773.44;;;8.59;74.64
75998;BME280;64685;48.762;44.822;2023-03-11T22:58:01;100777.38;;;8.58;74.89
75998;BME280;64685;48.762;44.822;2023-03-11T23:03:04;100782.94;;;8.58;74.43
75998;BME280;64685;48.762;44.822;2023-03-11T23:08:14;100766.34;;;8.53;74.87
75998;BME280;64685;48.762;44.822;2023-03-11T23:13:16;100752.72;;;8.52;74.67
75998;BME280;64685;48.762;44.822;2023-03-11T23:18:19;100745.22;;;8.52;75.03
75998;BME280;64685;48.762;44.822;2023-03-11T23:23:22;100753.22;;;8.54;75.32
75998;BME280;64685;48.762;44.822;2023-03-11T23:28:24;100764.69;;;8.52;75.23
75998;BME280;64685;48.762;44.822;2023-03-11T23:33:27;100745.81;;;8.49;75.30
75998;BME280;64685;48.762;44.822;2023-03-11T23:38:29;100738.88;;;8.33;75.69
75998;BME280;64685;48.762;44.822;2023-03-11T23:43:32;100738.31;;;8.18;75.52
75998;BME280;64685;48.762;44.822;2023-03-11T23:48:36;100741.16;;;7.99;76.58
75998;BME280;64685;48.762;44.822;2023-03-11T23:53:39;100726.75;;;7.97;76.06
75998;BME280;64685;48.762;44.822;2023-03-11T23:58:42;100704.47;;;7.84;76.39
